Time;durP1;ratioP1;P1;durP2;ratioP2;P2;SDS_P1;SDS_P2;PMS_P1;PMS_P2;Temp;Humidity;BMP_temperature;BMP_pressure;BME280_temperature;BME280_humidity;BME280_pressure;Samples;Min_cycle;Max_cycle;Signal;HPM_P1;HPM_P2
2023/01/16 00:02:12;;;;;;;0.30;0.30;;;;;;;;;;4992306;28;20030;-39
2023/01/16 00:04:37;;;;;;;0.30;0.30;;;;;;;;;;4992361;28;20427;-40
2023/01/16 00:07:03;;;;;;;0.30;0.30;;;;;;;;;;4992611;28;20036;-39
2023/01/16 00:09:28;;;;;;;0.38;0.38;;;;;;;;;;4992820;28;20106;-39
2023/01/16 00:11:54;;;;;;;0.28;0.28;;;;;;;;;;4992835;28;20113;-39
2023/01/16 00:14:19;;;;;;;0.32;0.32;;;;;;;;;;4992415;28;20117;-39
2023/01/16 00:16:45;;;;;;;0.22;0.22;;;;;;;;;;4992282;28;20092;-40
2023/01/16 00:19:10;;;;;;;0.30;0.30;;;;;;;;;;4992409;28;20022;-40
2023/01/16 00:21:35;;;;;;;0.20;0.20;;;;;;;;;;4992575;28;20037;-40
2023/01/16 00:24:01;;;;;;;0.10;0.10;;;;;;;;;;4992452;28;20030;-40
2023/01/16 00:26:27;;;;;;;0.88;0.50;;;;;;;;;;4992251;28;20472;-39
2023/01/16 00:28:53;;;;;;;0.20;0.20;;;;;;;;;;4992399;28;20054;-39
2023/01/16 00:31:19;;;;;;;0.20;0.20;;;;;;;;;;4992588;28;20080;-39
2023/01/16 00:33:44;;;;;;;0.20;0.20;;;;;;;;;;4992143;28;20045;-39
2023/01/16 00:36:10;;;;;;;0.20;0.20;;;;;;;;;;4992093;28;20532;-39
2023/01/16 00:38:36;;;;;;;0.30;0.30;;;;;;;;;;4992370;28;20377;-39
2023/01/16 00:41:02;;;;;;;0.20;0.20;;;;;;;;;;4990932;28;20042;-39
2023/01/16 00:43:27;;;;;;;0.28;0.28;;;;;;;;;;4992182;28;20080;-39
2023/01/16 00:45:53;;;;;;;0.30;0.30;;;;;;;;;;4991916;28;20054;-40
2023/01/16 00:48:18;;;;;;;0.10;0.10;;;;;;;;;;4992046;28;20437;-40
2023/01/16 00:50:44;;;;;;;0.20;0.20;;;;;;;;;;4992019;28;20026;-39
2023/01/16 00:53:09;;;;;;;0.20;0.20;;;;;;;;;;4992291;28;20029;-39
2023/01/16 00:55:36;;;;;;;0.20;0.20;;;;;;;;;;4992036;28;20042;-39
2023/01/16 00:58:04;;;;;;;0.20;0.20;;;;;;;;;;4992040;28;20029;-39
2023/01/16 01:00:30;;;;;;;0.20;0.20;;;;;;;;;;4992216;28;20058;-39
2023/01/16 01:02:55;;;;;;;0.28;0.28;;;;;;;;;;4991960;28;20465;-39
2023/01/16 01:05:21;;;;;;;0.20;0.20;;;;;;;;;;4990674;28;20516;-39
2023/01/16 01:07:46;;;;;;;0.20;0.20;;;;;;;;;;4991738;28;20032;-39
2023/01/16 01:10:12;;;;;;;0.75;0.38;;;;;;;;;;4991815;28;20069;-39
2023/01/16 01:12:37;;;;;;;0.22;0.20;;;;;;;;;;4992172;28;20022;-39
2023/01/16 01:15:03;;;;;;;0.30;0.30;;;;;;;;;;4991731;28;20509;-39
2023/01/16 01:17:29;;;;;;;0.17;0.17;;;;;;;;;;4991939;28;20026;-39
2023/01/16 01:19:54;;;;;;;0.28;0.28;;;;;;;;;;4992016;28;20395;-40
2023/01/16 01:22:19;;;;;;;0.52;0.20;;;;;;;;;;4992155;28;20031;-39
2023/01/16 01:24:48;;;;;;;0.82;0.20;;;;;;;;;;4991882;28;20062;-40
2023/01/16 01:27:14;;;;;;;0.13;0.13;;;;;;;;;;4991761;28;20026;-39
2023/01/16 01:29:40;;;;;;;0.20;0.20;;;;;;;;;;4991606;28;20381;-39
2023/01/16 01:32:05;;;;;;;0.20;0.20;;;;;;;;;;4992006;28;20022;-39
2023/01/16 01:34:33;;;;;;;0.20;0.20;;;;;;;;;;4991521;28;20030;-39
2023/01/16 01:36:59;;;;;;;1.23;0.32;;;;;;;;;;4991484;28;20072;-39
2023/01/16 01:39:25;;;;;;;0.20;0.20;;;;;;;;;;4991852;28;20033;-39
2023/01/16 01:41:50;;;;;;;0.20;0.20;;;;;;;;;;4991625;28;20018;-39
2023/01/16 01:44:34;;;;;;;0.10;0.10;;;;;;;;;;4991427;28;20026;-39
2023/01/16 01:47:00;;;;;;;0.20;0.20;;;;;;;;;;4991643;28;20026;-39
2023/01/16 01:49:29;;;;;;;0.20;0.20;;;;;;;;;;4993192;28;20126;-39
2023/01/16 01:51:57;;;;;;;0.10;0.10;;;;;;;;;;4995107;28;20027;-39
2023/01/16 01:54:29;;;;;;;0.10;0.10;;;;;;;;;;4995046;28;20076;-39
2023/01/16 01:57:12;;;;;;;0.10;0.10;;;;;;;;;;4994921;28;20492;-39
2023/01/16 01:59:40;;;;;;;0.20;0.20;;;;;;;;;;4995098;28;20389;-39
2023/01/16 02:02:07;;;;;;;0.20;0.20;;;;;;;;;;4994969;28;20018;-39
2023/01/16 02:04:35;;;;;;;0.10;0.10;;;;;;;;;;4993909;28;20180;-39
2023/01/16 02:07:02;;;;;;;0.10;0.10;;;;;;;;;;4994863;28;20531;-39
2023/01/16 02:09:29;;;;;;;0.20;0.20;;;;;;;;;;4994785;28;20050;-39
2023/01/16 02:11:56;;;;;;;0.15;0.15;;;;;;;;;;4994664;28;20036;-39
2023/01/16 02:14:23;;;;;;;0.20;0.20;;;;;;;;;;4994680;28;20034;-39
2023/01/16 02:19:47;;;;;;;0.20;0.20;;;;;;;;;;4994905;28;20023;-39
2023/01/16 02:22:12;;;;;;;0.10;0.10;;;;;;;;;;4994552;28;20034;-39
2023/01/16 02:24:50;;;;;;;0.20;0.20;;;;;;;;;;4994433;28;20049;-39
2023/01/16 02:27:26;;;;;;;0.10;0.10;;;;;;;;;;4994392;28;20065;-38
2023/01/16 02:29:52;;;;;;;0.20;0.20;;;;;;;;;;4994399;28;20045;-40
2023/01/16 02:32:31;;;;;;;0.20;0.20;;;;;;;;;;4994424;28;20030;-39
2023/01/16 02:35:06;;;;;;;0.20;0.20;;;;;;;;;;4994559;28;20042;-39
2023/01/16 02:37:34;;;;;;;0.20;0.20;;;;;;;;;;4994333;28;20504;-39
2023/01/16 02:40:13;;;;;;;0.10;0.10;;;;;;;;;;4994220;28;20027;-39
2023/01/16 02:42:44;;;;;;;0.13;0.13;;;;;;;;;;4994068;28;20135;-39
2023/01/16 02:45:24;;;;;;;0.20;0.20;;;;;;;;;;4994227;28;20042;-39
2023/01/16 02:48:06;;;;;;;0.20;0.20;;;;;;;;;;4994035;28;20046;-38
2023/01/16 02:50:54;;;;;;;0.10;0.10;;;;;;;;;;4993856;28;20065;-39
2023/01/16 02:53:26;;;;;;;0.10;0.10;;;;;;;;;;4965896;28;20046;-39
2023/01/16 02:55:57;;;;;;;0.10;0.10;;;;;;;;;;4993780;28;20481;-39
2023/01/16 02:58:24;;;;;;;0.20;0.20;;;;;;;;;;4993901;28;20105;-39
2023/01/16 03:00:55;;;;;;;0.20;0.20;;;;;;;;;;4993059;28;20018;-39
2023/01/16 03:03:31;;;;;;;0.17;0.17;;;;;;;;;;4993768;28;20558;-39
2023/01/16 03:06:01;;;;;;;0.10;0.10;;;;;;;;;;4994021;28;20389;-39
2023/01/16 03:08:45;;;;;;;0.20;0.20;;;;;;;;;;4993733;28;20014;-39
2023/01/16 03:11:10;;;;;;;0.20;0.20;;;;;;;;;;4993915;28;20390;-39
2023/01/16 03:13:54;;;;;;;0.15;0.15;;;;;;;;;;4993847;28;20292;-39
2023/01/16 03:16:28;;;;;;;0.20;0.20;;;;;;;;;;4993485;28;20189;-38
2023/01/16 03:18:53;;;;;;;0.10;0.10;;;;;;;;;;4993378;28;20022;-38
2023/01/16 03:21:18;;;;;;;0.17;0.17;;;;;;;;;;4993468;28;20069;-39
2023/01/16 03:23:51;;;;;;;0.20;0.20;;;;;;;;;;4993365;28;20037;-38
2023/01/16 03:26:35;;;;;;;0.10;0.10;;;;;;;;;;4993384;28;20065;-39
2023/01/16 03:29:01;;;;;;;0.20;0.20;;;;;;;;;;4993394;28;20030;-39
2023/01/16 03:31:33;;;;;;;0.20;0.20;;;;;;;;;;4991967;28;20025;-39
2023/01/16 03:34:08;;;;;;;0.20;0.20;;;;;;;;;;4993572;28;20346;-39
2023/01/16 03:36:39;;;;;;;0.20;0.20;;;;;;;;;;4993027;28;20302;-39
2023/01/16 03:39:07;;;;;;;0.10;0.10;;;;;;;;;;4993383;28;20031;-39
2023/01/16 03:41:34;;;;;;;0.10;0.10;;;;;;;;;;4993061;28;20030;-39
2023/01/16 03:44:01;;;;;;;0.20;0.20;;;;;;;;;;4993152;28;20465;-39
2023/01/16 03:46:29;;;;;;;0.20;0.20;;;;;;;;;;4993144;28;20050;-39
2023/01/16 03:49:04;;;;;;;0.10;0.10;;;;;;;;;;4992972;28;20809;-39
2023/01/16 03:51:35;;;;;;;0.20;0.20;;;;;;;;;;4992903;28;20030;-39
2023/01/16 03:54:10;;;;;;;0.10;0.10;;;;;;;;;;4991606;28;20026;-39
2023/01/16 03:56:40;;;;;;;0.15;0.15;;;;;;;;;;4992604;28;20042;-39
2023/01/16 03:59:06;;;;;;;0.20;0.20;;;;;;;;;;4992791;28;20124;-39
2023/01/16 04:01:50;;;;;;;0.10;0.10;;;;;;;;;;4992715;28;20113;-39
2023/01/16 04:04:19;;;;;;;0.13;0.13;;;;;;;;;;4992703;28;20030;-39
2023/01/16 04:06:48;;;;;;;0.20;0.20;;;;;;;;;;4992520;28;20093;-39
2023/01/16 04:09:16;;;;;;;0.10;0.10;;;;;;;;;;4992870;28;20031;-39
2023/01/16 04:11:42;;;;;;;0.10;0.10;;;;;;;;;;4992247;28;20034;-39
2023/01/16 04:14:09;;;;;;;0.10;0.10;;;;;;;;;;4992486;28;20392;-39
2023/01/16 04:16:35;;;;;;;0.20;0.20;;;;;;;;;;4992497;28;20113;-39
2023/01/16 04:19:01;;;;;;;0.17;0.17;;;;;;;;;;4992416;28;20532;-39
2023/01/16 04:21:27;;;;;;;0.20;0.20;;;;;;;;;;4992319;28;20465;-39
2023/01/16 04:23:54;;;;;;;0.20;0.20;;;;;;;;;;4992275;28;20030;-39
2023/01/16 04:26:20;;;;;;;0.20;0.20;;;;;;;;;;4992317;28;20058;-39
2023/01/16 04:28:45;;;;;;;0.20;0.20;;;;;;;;;;4992176;28;20046;-39
2023/01/16 04:31:10;;;;;;;0.20;0.20;;;;;;;;;;4992558;28;20029;-39
2023/01/16 04:33:36;;;;;;;0.20;0.20;;;;;;;;;;4992131;28;20049;-39
2023/01/16 04:36:01;;;;;;;0.10;0.10;;;;;;;;;;4992122;28;20034;-40
2023/01/16 04:38:27;;;;;;;0.20;0.20;;;;;;;;;;4992189;28;20026;-39
2023/01/16 04:40:52;;;;;;;0.20;0.20;;;;;;;;;;4992134;28;20029;-39
2023/01/16 04:43:18;;;;;;;0.15;0.15;;;;;;;;;;4992351;28;20045;-39
2023/01/16 04:45:43;;;;;;;0.10;0.10;;;;;;;;;;4992038;28;20512;-39
2023/01/16 04:48:09;;;;;;;0.10;0.10;;;;;;;;;;4992111;28;20046;-39
2023/01/16 04:50:34;;;;;;;0.20;0.20;;;;;;;;;;4991892;28;20025;-39
2023/01/16 04:52:59;;;;;;;0.20;0.20;;;;;;;;;;4992345;28;20034;-39
2023/01/16 04:55:25;;;;;;;0.20;0.20;;;;;;;;;;4992169;28;20430;-39
2023/01/16 04:57:50;;;;;;;0.10;0.10;;;;;;;;;;4991922;28;20283;-38
2023/01/16 05:00:16;;;;;;;0.10;0.10;;;;;;;;;;4992260;28;20041;-38
2023/01/16 05:02:41;;;;;;;0.20;0.20;;;;;;;;;;4991842;28;20054;-39
2023/01/16 05:05:07;;;;;;;0.20;0.20;;;;;;;;;;4991875;28;20061;-39
2023/01/16 05:07:32;;;;;;;0.17;0.17;;;;;;;;;;4992258;28;20137;-39
2023/01/16 05:09:57;;;;;;;0.10;0.10;;;;;;;;;;4992137;28;20040;-39
2023/01/16 05:12:23;;;;;;;0.20;0.20;;;;;;;;;;4991823;28;20460;-38
2023/01/16 05:14:48;;;;;;;0.20;0.20;;;;;;;;;;4992010;28;20593;-39
2023/01/16 05:17:13;;;;;;;0.10;0.10;;;;;;;;;;4991784;28;20037;-39
2023/01/16 05:19:39;;;;;;;0.20;0.20;;;;;;;;;;4991973;28;20022;-39
2023/01/16 05:22:04;;;;;;;1.30;0.28;;;;;;;;;;4991811;28;20030;-39
2023/01/16 05:24:30;;;;;;;0.20;0.20;;;;;;;;;;4994002;28;20023;-38
2023/01/16 05:26:56;;;;;;;0.28;0.28;;;;;;;;;;4995700;28;20031;-39
2023/01/16 05:29:21;;;;;;;0.20;0.20;;;;;;;;;;4995673;28;20157;-39
2023/01/16 05:31:46;;;;;;;0.10;0.10;;;;;;;;;;4995532;28;20031;-39
2023/01/16 05:34:12;;;;;;;0.10;0.10;;;;;;;;;;4995416;28;20030;-39
2023/01/16 05:36:37;;;;;;;0.10;0.10;;;;;;;;;;4995363;28;20049;-39
2023/01/16 05:39:03;;;;;;;0.30;0.30;;;;;;;;;;4995416;28;20101;-39
2023/01/16 05:41:28;;;;;;;0.20;0.20;;;;;;;;;;4995359;28;20385;-38
2023/01/16 05:43:54;;;;;;;0.30;0.30;;;;;;;;;;4995232;28;20033;-39
2023/01/16 05:46:19;;;;;;;0.40;0.40;;;;;;;;;;4995069;28;20084;-39
2023/01/16 05:48:45;;;;;;;0.20;0.20;;;;;;;;;;4995159;28;20117;-39
2023/01/16 05:51:11;;;;;;;0.10;0.10;;;;;;;;;;4995527;28;20093;-38
2023/01/16 05:53:37;;;;;;;0.10;0.10;;;;;;;;;;4994984;28;20037;-39
2023/01/16 05:56:06;;;;;;;0.20;0.20;;;;;;;;;;4995044;28;20034;-39
2023/01/16 05:58:32;;;;;;;0.10;0.10;;;;;;;;;;4994980;28;20552;-38
2023/01/16 06:00:57;;;;;;;0.30;0.22;;;;;;;;;;4994920;28;20038;-39
2023/01/16 06:03:23;;;;;;;0.20;0.20;;;;;;;;;;4994865;28;20061;-39
2023/01/16 06:05:48;;;;;;;0.20;0.20;;;;;;;;;;4994818;28;20085;-39
2023/01/16 06:08:13;;;;;;;0.10;0.10;;;;;;;;;;4995066;28;20019;-39
2023/01/16 06:10:39;;;;;;;3.17;0.22;;;;;;;;;;4994726;28;20058;-39
2023/01/16 06:13:04;;;;;;;0.20;0.20;;;;;;;;;;4994727;28;20453;-39
2023/01/16 06:15:30;;;;;;;0.20;0.20;;;;;;;;;;4994533;28;20038;-39
2023/01/16 06:17:55;;;;;;;0.20;0.20;;;;;;;;;;4994567;28;20026;-39
2023/01/16 06:20:21;;;;;;;0.20;0.20;;;;;;;;;;4994751;28;20066;-39
2023/01/16 06:22:46;;;;;;;0.20;0.20;;;;;;;;;;4994406;28;20022;-39
2023/01/16 06:25:12;;;;;;;0.20;0.20;;;;;;;;;;4994517;28;20034;-39
2023/01/16 06:27:38;;;;;;;0.10;0.10;;;;;;;;;;4994394;28;20037;-39
2023/01/16 06:30:04;;;;;;;0.20;0.20;;;;;;;;;;4994346;28;20080;-39
2023/01/16 06:32:30;;;;;;;0.10;0.10;;;;;;;;;;4993212;28;20033;-39
2023/01/16 06:34:55;;;;;;;0.20;0.20;;;;;;;;;;4994339;28;20038;-39
2023/01/16 06:37:20;;;;;;;0.17;0.17;;;;;;;;;;4994496;28;20259;-39
2023/01/16 06:39:46;;;;;;;0.77;0.77;;;;;;;;;;4994472;28;20026;-39
2023/01/16 06:42:11;;;;;;;0.20;0.20;;;;;;;;;;4992922;28;20041;-39
2023/01/16 06:44:36;;;;;;;0.10;0.10;;;;;;;;;;4993853;28;20058;-38
2023/01/16 06:47:02;;;;;;;0.10;0.10;;;;;;;;;;4994178;28;20046;-38
2023/01/16 06:49:28;;;;;;;0.20;0.20;;;;;;;;;;4994345;28;20030;-38
2023/01/16 06:51:53;;;;;;;0.30;0.30;;;;;;;;;;4993951;28;20396;-39
2023/01/16 06:54:19;;;;;;;0.20;0.20;;;;;;;;;;4994054;28;20444;-38
2023/01/16 06:56:44;;;;;;;0.20;0.20;;;;;;;;;;4994097;28;20069;-39
2023/01/16 06:59:10;;;;;;;0.20;0.20;;;;;;;;;;4994097;28;20093;-38
2023/01/16 07:01:35;;;;;;;0.10;0.10;;;;;;;;;;4993884;28;20038;-39
2023/01/16 07:04:01;;;;;;;0.20;0.20;;;;;;;;;;4992734;28;20030;-39
2023/01/16 07:06:26;;;;;;;0.20;0.20;;;;;;;;;;4993709;28;20027;-39
2023/01/16 07:08:52;;;;;;;0.10;0.10;;;;;;;;;;4993929;28;20515;-39
2023/01/16 07:11:18;;;;;;;0.10;0.10;;;;;;;;;;4993746;28;20080;-39
2023/01/16 07:13:43;;;;;;;0.10;0.10;;;;;;;;;;4993492;28;20022;-39
2023/01/16 07:24:29;;;;;;;0.10;0.10;;;;;;;;;;4993508;28;20457;-38
2023/01/16 07:26:59;;;;;;;0.20;0.20;;;;;;;;;;4993087;28;20029;-38
2023/01/16 07:29:26;;;;;;;0.10;0.10;;;;;;;;;;4993641;28;20112;-38
2023/01/16 07:31:51;;;;;;;0.25;0.20;;;;;;;;;;4993255;28;20028;-39
2023/01/16 07:34:17;;;;;;;0.20;0.20;;;;;;;;;;4993272;28;20022;-38
2023/01/16 07:36:42;;;;;;;0.20;0.20;;;;;;;;;;4993257;28;20137;-39
2023/01/16 07:39:08;;;;;;;0.10;0.10;;;;;;;;;;4993198;28;20480;-39
2023/01/16 07:41:33;;;;;;;0.28;0.20;;;;;;;;;;4993043;28;20418;-39
2023/01/16 07:43:59;;;;;;;0.75;0.20;;;;;;;;;;4992977;28;20034;-39
2023/01/16 07:46:24;;;;;;;0.10;0.10;;;;;;;;;;4992364;28;20050;-39
2023/01/16 07:48:51;;;;;;;0.10;0.10;;;;;;;;;;4991952;28;20026;-39
2023/01/16 07:51:16;;;;;;;0.10;0.10;;;;;;;;;;4993004;28;20034;-41
2023/01/16 07:53:42;;;;;;;0.10;0.10;;;;;;;;;;4992863;28;20045;-39
2023/01/16 07:56:07;;;;;;;1.45;0.20;;;;;;;;;;4992677;28;20084;-38
2023/01/16 07:58:33;;;;;;;0.15;0.15;;;;;;;;;;4991527;28;20384;-39
2023/01/16 08:00:58;;;;;;;0.20;0.20;;;;;;;;;;4992751;28;20034;-39
2023/01/16 08:06:45;;;;;;;0.82;0.32;;;;;;;;;;4992334;28;20058;-40
2023/01/16 08:09:11;;;;;;;0.20;0.20;;;;;;;;;;4992735;28;20041;-39
2023/01/16 08:11:38;;;;;;;0.10;0.10;;;;;;;;;;4992528;28;20026;-38
2023/01/16 08:14:03;;;;;;;0.20;0.20;;;;;;;;;;4993000;28;20025;-39
2023/01/16 08:16:29;;;;;;;0.20;0.20;;;;;;;;;;4992438;28;20042;-41
2023/01/16 08:18:55;;;;;;;0.20;0.20;;;;;;;;;;4992505;28;20022;-40
2023/01/16 08:21:20;;;;;;;0.30;0.20;;;;;;;;;;4992566;28;20038;-41
2023/01/16 08:23:46;;;;;;;0.20;0.20;;;;;;;;;;4992699;28;20019;-41
2023/01/16 08:26:11;;;;;;;0.20;0.20;;;;;;;;;;4992334;28;20034;-41
2023/01/16 08:28:37;;;;;;;0.10;0.10;;;;;;;;;;4992405;28;20019;-42
2023/01/16 08:33:57;;;;;;;0.10;0.10;;;;;;;;;;5013016;28;20054;-39
2023/01/16 08:36:22;;;;;;;0.13;0.13;;;;;;;;;;5031664;28;20045;-39
2023/01/16 08:38:48;;;;;;;0.20;0.20;;;;;;;;;;5031565;28;20028;-39
2023/01/16 08:52:11;;;;;;;0.10;0.10;;;;;;;;;;5031611;28;20033;-39
2023/01/16 08:54:37;;;;;;;0.20;0.20;;;;;;;;;;5030048;28;20550;-40
2023/01/16 08:57:03;;;;;;;0.20;0.20;;;;;;;;;;5031452;28;20124;-39
2023/01/16 08:59:33;;;;;;;0.10;0.10;;;;;;;;;;5033378;28;20017;-41
2023/01/16 09:02:02;;;;;;;0.20;0.20;;;;;;;;;;5035414;28;20036;-40
2023/01/16 09:04:28;;;;;;;0.10;0.10;;;;;;;;;;5035668;28;20120;-39
2023/01/16 09:06:53;;;;;;;0.20;0.20;;;;;;;;;;5035373;28;20454;-39
2023/01/16 09:09:19;;;;;;;0.20;0.20;;;;;;;;;;5035136;28;20026;-40
2023/01/16 09:14:29;;;;;;;0.20;0.20;;;;;;;;;;5035229;28;20491;-40
2023/01/16 09:16:55;;;;;;;0.22;0.22;;;;;;;;;;5035418;28;20033;-40
2023/01/16 09:19:20;;;;;;;0.30;0.30;;;;;;;;;;5034946;28;20517;-40
2023/01/16 09:21:45;;;;;;;0.17;0.17;;;;;;;;;;5016558;28;20025;-39
2023/01/16 09:24:11;;;;;;;0.30;0.30;;;;;;;;;;5034334;28;20022;-40
2023/01/16 09:26:36;;;;;;;0.30;0.30;;;;;;;;;;5034648;28;20424;-39
2023/01/16 09:29:02;;;;;;;0.15;0.15;;;;;;;;;;5034354;28;20471;-39
2023/01/16 09:31:27;;;;;;;0.32;0.32;;;;;;;;;;5035608;28;20021;-39
2023/01/16 09:33:54;;;;;;;0.20;0.20;;;;;;;;;;5036232;28;20499;-39
2023/01/16 09:36:19;;;;;;;0.20;0.20;;;;;;;;;;5053966;28;20051;-40
2023/01/16 09:38:45;;;;;;;0.20;0.20;;;;;;;;;;5036347;28;20136;-40
2023/01/16 09:43:35;;;;;;;0.10;0.10;;;;;;;;;;5053847;28;20550;-40
2023/01/16 09:43:59;;;;;;;0.17;0.17;;;;;;;;;;5053361;28;20091;-40
2023/01/16 09:46:29;;;;;;;0.55;0.40;;;;;;;;;;5053863;28;20029;-39
2023/01/16 09:48:56;;;;;;;0.20;0.20;;;;;;;;;;5053890;28;20372;-39
2023/01/16 09:51:41;;;;;;;0.17;0.17;;;;;;;;;;5053991;28;20083;-39
2023/01/16 09:59:54;;;;;;;0.10;0.10;;;;;;;;;;5053684;28;20025;-40
2023/01/16 10:02:22;;;;;;;0.65;0.20;;;;;;;;;;5053624;28;20037;-40
2023/01/16 10:04:48;;;;;;;0.10;0.10;;;;;;;;;;5035530;28;20441;-39
2023/01/16 10:07:32;;;;;;;0.30;0.30;;;;;;;;;;5053447;28;20029;-39
2023/01/16 10:10:09;;;;;;;0.50;0.50;;;;;;;;;;5053135;28;20382;-40
2023/01/16 10:12:37;;;;;;;0.30;0.30;;;;;;;;;;5053370;28;20025;-39
2023/01/16 10:15:17;;;;;;;0.30;0.30;;;;;;;;;;5035597;28;20426;-39
2023/01/16 10:18:01;;;;;;;0.20;0.20;;;;;;;;;;5053643;28;20092;-39
2023/01/16 10:20:35;;;;;;;0.40;0.40;;;;;;;;;;5053370;28;20111;-39
2023/01/16 10:23:24;;;;;;;0.52;0.20;;;;;;;;;;5053190;28;20116;-39
2023/01/16 10:25:54;;;;;;;0.20;0.20;;;;;;;;;;5042386;28;20132;-39
2023/01/16 10:28:32;;;;;;;0.10;0.10;;;;;;;;;;5053030;28;20029;-39
2023/01/16 10:31:05;;;;;;;0.20;0.20;;;;;;;;;;5053329;28;20040;-39
2023/01/16 10:33:38;;;;;;;0.35;0.20;;;;;;;;;;5052718;28;20056;-39
2023/01/16 10:36:04;;;;;;;0.30;0.30;;;;;;;;;;5053192;28;20616;-39
2023/01/16 10:50:13;;;;;;;0.20;0.20;;;;;;;;;;4994216;28;20034;-39
2023/01/16 10:52:39;;;;;;;0.20;0.20;;;;;;;;;;4994029;28;20033;-39
2023/01/16 10:55:05;;;;;;;0.90;0.55;;;;;;;;;;4994001;28;20391;-39
2023/01/16 10:57:30;;;;;;;0.17;0.17;;;;;;;;;;4994004;28;20081;-39
2023/01/16 11:00:17;;;;;;;0.20;0.20;;;;;;;;;;4994264;28;20038;-38
2023/01/16 11:02:45;;;;;;;0.20;0.20;;;;;;;;;;4993799;28;20034;-38
2023/01/16 11:05:23;;;;;;;0.20;0.20;;;;;;;;;;4993901;28;20081;-39
2023/01/16 11:07:48;;;;;;;0.30;0.30;;;;;;;;;;4993789;28;20039;-38
2023/01/16 11:10:14;;;;;;;0.20;0.20;;;;;;;;;;4993777;28;20015;-39
2023/01/16 11:18:28;;;;;;;0.25;0.25;;;;;;;;;;4993613;28;20488;-39
2023/01/16 11:20:53;;;;;;;0.10;0.10;;;;;;;;;;4993102;28;20146;-39
2023/01/16 11:23:23;;;;;;;0.20;0.20;;;;;;;;;;4993206;28;20100;-39
2023/01/16 11:25:50;;;;;;;0.15;0.15;;;;;;;;;;4993461;28;20080;-39
2023/01/16 11:28:20;;;;;;;0.20;0.20;;;;;;;;;;4993385;28;20026;-39
2023/01/16 11:30:47;;;;;;;0.20;0.20;;;;;;;;;;4975731;28;20045;-39
2023/01/16 11:33:20;;;;;;;0.10;0.10;;;;;;;;;;4993350;28;20480;-39
2023/01/16 11:35:54;;;;;;;0.20;0.20;;;;;;;;;;4993406;28;20043;-39
2023/01/16 11:38:20;;;;;;;0.80;0.20;;;;;;;;;;4993229;28;20038;-38
2023/01/16 11:40:47;;;;;;;0.20;0.20;;;;;;;;;;4992265;28;20042;-39
2023/01/16 11:46:04;;;;;;;0.68;0.60;;;;;;;;;;4995002;28;20037;-39
2023/01/16 11:48:48;;;;;;;0.20;0.20;;;;;;;;;;5012795;28;20030;-39
2023/01/16 11:51:15;;;;;;;0.47;0.20;;;;;;;;;;5012745;28;20070;-39
2023/01/16 11:53:42;;;;;;;1.60;1.00;;;;;;;;;;5012512;28;20026;-39
2023/01/16 11:56:28;;;;;;;0.20;0.20;;;;;;;;;;5012526;28;20045;-39
2023/01/16 11:58:53;;;;;;;0.40;0.40;;;;;;;;;;4946005;28;20446;-39
2023/01/16 12:02:15;;;;;;;1.00;0.52;;;;;;;;;;5012298;28;20026;-39
2023/01/16 12:04:25;;;;;;;0.68;0.40;;;;;;;;;;5008279;28;20395;-39
2023/01/16 12:06:59;;;;;;;0.77;0.50;;;;;;;;;;5012517;28;20026;-39
2023/01/16 12:09:27;;;;;;;0.30;0.30;;;;;;;;;;5012119;28;20057;-39
2023/01/16 12:11:52;;;;;;;0.55;0.40;;;;;;;;;;5012142;28;20018;-40
2023/01/16 12:14:21;;;;;;;0.30;0.30;;;;;;;;;;5012488;28;20357;-39
2023/01/16 12:16:56;;;;;;;0.98;0.70;;;;;;;;;;5012027;28;20029;-39
2023/01/16 12:19:24;;;;;;;2.47;0.43;;;;;;;;;;5012059;28;20542;-39
2023/01/16 12:21:56;;;;;;;0.20;0.20;;;;;;;;;;5011968;28;20020;-39
2023/01/16 12:24:42;;;;;;;0.35;0.35;;;;;;;;;;5012058;28;20530;-39
2023/01/16 12:27:13;;;;;;;0.20;0.20;;;;;;;;;;5011993;28;20064;-39
2023/01/16 12:29:42;;;;;;;0.20;0.20;;;;;;;;;;5011944;28;20026;-39
2023/01/16 12:32:22;;;;;;;0.50;0.50;;;;;;;;;;5011891;28;20043;-39
2023/01/16 12:34:52;;;;;;;0.30;0.20;;;;;;;;;;5011939;28;20037;-39
2023/01/16 12:37:42;;;;;;;0.45;0.45;;;;;;;;;;5012165;28;20037;-39
2023/01/16 12:40:24;;;;;;;2.88;1.48;;;;;;;;;;5011645;28;20109;-40
2023/01/16 12:45:39;;;;;;;0.40;0.40;;;;;;;;;;4972780;28;20035;-38
2023/01/16 12:48:16;;;;;;;1.30;0.40;;;;;;;;;;4972995;28;20019;-39
2023/01/16 12:50:42;;;;;;;0.43;0.43;;;;;;;;;;4972665;28;20035;-39
2023/01/16 12:53:20;;;;;;;4.95;3.58;;;;;;;;;;4971451;28;20122;-39
2023/01/16 12:56:01;;;;;;;0.63;0.40;;;;;;;;;;4972531;28;20141;-39
2023/01/16 12:58:28;;;;;;;1.38;0.60;;;;;;;;;;4972839;28;20056;-39
2023/01/16 13:00:54;;;;;;;2.38;2.17;;;;;;;;;;4972641;28;20531;-39
2023/01/16 13:03:34;;;;;;;0.60;0.60;;;;;;;;;;4972868;28;20031;-39
2023/01/16 13:06:02;;;;;;;0.63;0.45;;;;;;;;;;4972609;28;20436;-39
2023/01/16 13:08:59;;;;;;;0.43;0.40;;;;;;;;;;4972412;28;20377;-39
2023/01/16 13:14:12;;;;;;;0.63;0.63;;;;;;;;;;4972912;28;20400;-39
2023/01/16 13:16:42;;;;;;;0.30;0.30;;;;;;;;;;4972302;28;20055;-39
2023/01/16 13:19:19;;;;;;;0.50;0.43;;;;;;;;;;4972499;28;20504;-39
2023/01/16 13:21:56;;;;;;;0.30;0.30;;;;;;;;;;4972286;28;20101;-39
2023/01/16 13:24:26;;;;;;;0.68;0.52;;;;;;;;;;4972394;28;20492;-39
2023/01/16 13:26:55;;;;;;;0.55;0.47;;;;;;;;;;4972416;28;20054;-39
2023/01/16 13:29:39;;;;;;;0.40;0.40;;;;;;;;;;4972659;28;20114;-38
2023/01/16 13:32:22;;;;;;;0.80;0.63;;;;;;;;;;4972541;28;20027;-39
2023/01/16 13:34:52;;;;;;;1.35;0.40;;;;;;;;;;4972587;28;20031;-39
2023/01/16 13:37:17;;;;;;;0.50;0.50;;;;;;;;;;4972231;28;20062;-39
2023/01/16 13:40:02;;;;;;;0.65;0.30;;;;;;;;;;4972192;28;20091;-39
2023/01/16 13:42:29;;;;;;;0.30;0.30;;;;;;;;;;5007519;28;20052;-39
2023/01/16 13:47:43;;;;;;;0.60;0.43;;;;;;;;;;5014668;28;20207;-39
2023/01/16 13:50:24;;;;;;;0.30;0.30;;;;;;;;;;5015065;28;20030;-38
2023/01/16 13:52:50;;;;;;;0.93;0.45;;;;;;;;;;5014972;28;20025;-39
2023/01/16 13:55:24;;;;;;;0.30;0.30;;;;;;;;;;5014525;28;20117;-39
2023/01/16 13:57:53;;;;;;;0.40;0.40;;;;;;;;;;5014743;28;20080;-39
2023/01/16 14:00:19;;;;;;;2.10;0.68;;;;;;;;;;5014555;28;20022;-39
2023/01/16 14:02:45;;;;;;;0.40;0.40;;;;;;;;;;5014450;28;20080;-39
2023/01/16 14:05:13;;;;;;;0.47;0.45;;;;;;;;;;5014631;28;20140;-39
2023/01/16 14:10:40;;;;;;;0.45;0.45;;;;;;;;;;5014615;28;20038;-39
2023/01/16 14:13:14;;;;;;;0.70;0.38;;;;;;;;;;4996798;28;20058;-39
2023/01/16 14:18:38;;;;;;;0.63;0.38;;;;;;;;;;5014270;28;20026;-39
2023/01/16 14:21:08;;;;;;;0.40;0.40;;;;;;;;;;5014216;28;20022;-39
2023/01/16 14:26:24;;;;;;;2.15;0.80;;;;;;;;;;5014282;28;20041;-38
2023/01/16 14:28:54;;;;;;;0.88;0.60;;;;;;;;;;5014164;28;20026;-39
2023/01/16 14:31:23;;;;;;;1.02;0.60;;;;;;;;;;5013996;28;20079;-39
2023/01/16 14:33:49;;;;;;;1.52;0.70;;;;;;;;;;5013998;28;20468;-39
2023/01/16 14:36:17;;;;;;;0.85;0.80;;;;;;;;;;5014107;28;20041;-39
2023/01/16 14:38:45;;;;;;;1.13;0.77;;;;;;;;;;5013869;28;20025;-39
2023/01/16 14:55:24;;;;;;;1.45;0.82;;;;;;;;;;5013639;28;20510;-39
2023/01/16 14:57:51;;;;;;;1.10;0.80;;;;;;;;;;5013647;28;20056;-39
2023/01/16 15:00:18;;;;;;;3.17;1.00;;;;;;;;;;5013742;28;20038;-39
2023/01/16 15:02:46;;;;;;;1.30;0.50;;;;;;;;;;5013453;28;20013;-39
2023/01/16 15:05:14;;;;;;;0.38;0.38;;;;;;;;;;5013479;28;20486;-39
2023/01/16 15:07:51;;;;;;;1.13;0.80;;;;;;;;;;5013324;28;20105;-41
2023/01/16 15:10:20;;;;;;;0.50;0.40;;;;;;;;;;5013406;28;20034;-39
2023/01/16 15:12:45;;;;;;;1.63;0.85;;;;;;;;;;5013075;28;20101;-39
2023/01/16 15:15:22;;;;;;;0.52;0.52;;;;;;;;;;5013413;28;20121;-39
2023/01/16 15:23:29;;;;;;;1.15;0.80;;;;;;;;;;5013118;28;20037;-39
2023/01/16 15:26:05;;;;;;;1.63;0.85;;;;;;;;;;5013082;28;20491;-38
2023/01/16 15:28:37;;;;;;;4.10;0.50;;;;;;;;;;5012920;28;20036;-39
2023/01/16 15:31:13;;;;;;;2.70;1.00;;;;;;;;;;5012918;28;20041;-39
2023/01/16 15:33:49;;;;;;;0.68;0.55;;;;;;;;;;5012692;28;20049;-39
2023/01/16 15:36:25;;;;;;;1.48;0.77;;;;;;;;;;5012794;28;20624;-39
2023/01/16 15:39:06;;;;;;;2.97;1.00;;;;;;;;;;5012676;28;20449;-38
2023/01/16 15:47:25;;;;;;;0.60;0.60;;;;;;;;;;4969074;28;20100;-39
2023/01/16 15:49:50;;;;;;;1.02;0.68;;;;;;;;;;5013000;28;20506;-39
2023/01/16 15:52:16;;;;;;;0.98;0.90;;;;;;;;;;5013234;28;20017;-38
2023/01/16 15:54:42;;;;;;;1.02;0.80;;;;;;;;;;5012873;28;20030;-39
2023/01/16 15:57:20;;;;;;;0.70;0.57;;;;;;;;;;5012979;28;20129;-39
2023/01/16 15:59:50;;;;;;;1.55;0.85;;;;;;;;;;5012857;28;20033;-39
2023/01/16 16:02:17;;;;;;;1.42;0.55;;;;;;;;;;5012875;28;20022;-39
2023/01/16 16:04:44;;;;;;;2.08;0.80;;;;;;;;;;5012792;28;20025;-39
2023/01/16 16:07:10;;;;;;;0.82;0.70;;;;;;;;;;4995138;28;20379;-40
2023/01/16 16:09:36;;;;;;;0.50;0.50;;;;;;;;;;5012456;28;20018;-40
2023/01/16 16:12:04;;;;;;;1.42;1.35;;;;;;;;;;5012614;28;20034;-39
2023/01/16 16:20:29;;;;;;;2.78;1.13;;;;;;;;;;5012836;28;20034;-40
2023/01/16 16:23:01;;;;;;;1.27;0.52;;;;;;;;;;5012598;28;20037;-39
2023/01/16 16:25:30;;;;;;;1.20;0.98;;;;;;;;;;5012587;28;20017;-39
2023/01/16 16:27:55;;;;;;;4.82;1.60;;;;;;;;;;4994859;28;20083;-40
2023/01/16 16:30:28;;;;;;;1.65;1.10;;;;;;;;;;5012347;28;20112;-39
2023/01/16 16:32:54;;;;;;;0.95;0.73;;;;;;;;;;5012421;28;20145;-39
2023/01/16 16:35:22;;;;;;;1.02;0.88;;;;;;;;;;4994721;28;20042;-40
2023/01/16 16:37:48;;;;;;;1.77;0.93;;;;;;;;;;5012297;28;20032;-39
2023/01/16 16:40:14;;;;;;;0.82;0.75;;;;;;;;;;5012271;28;20097;-39